Flood From: 22-02-2018 06:00 Until: 23-02-2018 06:00 warning for: Flood Level: Yellow info button

Although rather usual in this region, locally or potentially dangerous phenomena are expected. (such as local winds, summer thunderstorms, rising streams or high waves) Be aware and pay attention to the latest weather updates, especially if you carry out activities exposed to weather or close to a stream or shoreline. 


Meteo18 Weather Cam more information Meteo18 Weather Cam


Thunder radar more information blitzortung!


Rain radar more information rain snow radar


Visit our other weather sites:

Template documentation
and downloads

And another site



Weather Underground History page Text

Daily Summary for December 20, 2017 Units:  Both    English   Metric
« Previous Day
Next Day »
Daily Weekly Monthly Yearly Custom
  High: Low: Average:
Temperature: TemperatureC °F /  -17.8 °C 2.1 °F /  -16.6 °C 4.7 °F /  -15.2 °C
Dew Point: DewpointC °F /  -17.8 °C 1.2 °F /  -17.1 °C 3.9 °F /  -15.6 °C
Humidity: Humidity % 92 % 94 %
Wind Speed: WindSpeedKMH mph /  0 km/h - 1.3 mph /  2.1 km/h
Wind Gust: WindSpeedGustKMH mph /  0 km/h - -
Wind:- - WNW
Pressure: PressurehPa in /  0 hPa 1035.8 in /  35072.2 hPa -
Precipitation: 0.0 in /  0 mm    
Historical Graphs
 
 
Tabular Data for December 20, 2017
Time Temperature Dew Point Pressure Wind Wind Speed Wind Gust Humidity Rainfall Rate (Hourly)
TemperatureC °F /  -17.8 °C DewpointC °F /  -17.8 °C PressurehPa in /  0 hPa Calm     Humidity % HourlyPrecipMM in /  0 mm
00:02 3.1 °F /  -16.1 °C 1.9 °F /  -16.7 °C 1038.1 in /  35150.1 hPa Calm   9.7 mph /  15.6 km/h 92 % 0.0 in /  0 mm
00:07 3.1 °F /  -16.1 °C 1.9 °F /  -16.7 °C 1038.1 in /  35150.1 hPa Calm   4.8 mph /  7.7 km/h 92 % 0.0 in /  0 mm
00:12 3.1 °F /  -16.1 °C 1.9 °F /  -16.7 °C 1038.1 in /  35150.1 hPa North 1.6 mph /  2.6 km/h 4.8 mph /  7.7 km/h 92 % 0.0 in /  0 mm
00:22 2.9 °F /  -16.2 °C 1.7 °F /  -16.8 °C 1038.1 in /  35150.1 hPa Calm   3.2 mph /  5.1 km/h 92 % 0.0 in /  0 mm
00:32 2.9 °F /  -16.2 °C 1.7 °F /  -16.8 °C 1037.8 in /  35139.9 hPa Calm   3.2 mph /  5.1 km/h 92 % 0.0 in /  0 mm
00:37 2.8 °F /  -16.2 °C 1.6 °F /  -16.9 °C 1037.8 in /  35139.9 hPa Calm   3.2 mph /  5.1 km/h 92 % 0.0 in /  0 mm
00:42 2.8 °F /  -16.2 °C 1.8 °F /  -16.8 °C 1037.8 in /  35139.9 hPa Calm   1.6 mph /  2.6 km/h 93 % 0.0 in /  0 mm
00:47 2.9 °F /  -16.2 °C 1.9 °F /  -16.7 °C 1037.8 in /  35139.9 hPa NNE 1.6 mph /  2.6 km/h 1.6 mph /  2.6 km/h 93 % 0.0 in /  0 mm
00:57 2.9 °F /  -16.2 °C 1.7 °F /  -16.8 °C 1037.5 in /  35129.8 hPa Calm   1.6 mph /  2.6 km/h 92 % 0.0 in /  0 mm
01:02 2.8 °F /  -16.2 °C 1.6 °F /  -16.9 °C 1037.5 in /  35129.8 hPa Calm   1.6 mph /  2.6 km/h 92 % 0.0 in /  0 mm
01:07 2.8 °F /  -16.2 °C 1.6 °F /  -16.9 °C 1037.5 in /  35129.8 hPa Calm   1.6 mph /  2.6 km/h 92 % 0.0 in /  0 mm
01:12 2.7 °F /  -16.3 °C 1.5 °F /  -16.9 °C 1037.5 in /  35129.8 hPa NNW 1.6 mph /  2.6 km/h 1.6 mph /  2.6 km/h 92 % 0.0 in /  0 mm
01:17 2.7 °F /  -16.3 °C 1.7 °F /  -16.8 °C 1037.5 in /  35129.8 hPa Calm   4.8 mph /  7.7 km/h 93 % 0.0 in /  0 mm
01:22 2.7 °F /  -16.3 °C 1.7 °F /  -16.8 °C 1037.5 in /  35129.8 hPa North 1.6 mph /  2.6 km/h 4.8 mph /  7.7 km/h 93 % 0.0 in /  0 mm
01:32 2.7 °F /  -16.3 °C 1.7 °F /  -16.8 °C 1037.1 in /  35116.2 hPa NW 1.6 mph /  2.6 km/h 4.8 mph /  7.7 km/h 93 % 0.0 in /  0 mm
01:42 2.6 °F /  -16.3 °C 1.6 °F /  -16.9 °C 1037.1 in /  35116.2 hPa Calm   4.8 mph /  7.7 km/h 93 % 0.0 in /  0 mm
01:47 2.6 °F /  -16.3 °C 1.6 °F /  -16.9 °C 1037.1 in /  35116.2 hPa WNW 1.6 mph /  2.6 km/h 3.2 mph /  5.1 km/h 93 % 0.0 in /  0 mm
01:57 2.6 °F /  -16.3 °C 1.6 °F /  -16.9 °C 1037.1 in /  35116.2 hPa Calm   3.2 mph /  5.1 km/h 93 % 0.0 in /  0 mm
02:02 2.6 °F /  -16.3 °C 1.6 °F /  -16.9 °C 1037.1 in /  35116.2 hPa NNW 1.6 mph /  2.6 km/h 3.2 mph /  5.1 km/h 93 % 0.0 in /  0 mm
02:07 2.7 °F /  -16.3 °C 1.7 °F /  -16.8 °C 1037.1 in /  35116.2 hPa Calm   4.8 mph /  7.7 km/h 93 % 0.0 in /  0 mm
02:17 2.8 °F /  -16.2 °C 1.8 °F /  -16.8 °C 1037.1 in /  35116.2 hPa NW 3.2 mph /  5.1 km/h 3.2 mph /  5.1 km/h 93 % 0.0 in /  0 mm
02:22 2.8 °F /  -16.2 °C 1.8 °F /  -16.8 °C 1037.1 in /  35116.2 hPa Calm   3.2 mph /  5.1 km/h 93 % 0.0 in /  0 mm
02:27 2.8 °F /  -16.2 °C 1.8 °F /  -16.8 °C 1037.1 in /  35116.2 hPa Calm   3.2 mph /  5.1 km/h 93 % 0.0 in /  0 mm
02:32 2.8 °F /  -16.2 °C 1.8 °F /  -16.8 °C 1037.1 in /  35116.2 hPa Calm   3.2 mph /  5.1 km/h 93 % 0.0 in /  0 mm
02:42 2.8 °F /  -16.2 °C 1.8 °F /  -16.8 °C 1037.1 in /  35116.2 hPa WNW 1.6 mph /  2.6 km/h 4.8 mph /  7.7 km/h 93 % 0.0 in /  0 mm
02:52 2.8 °F /  -16.2 °C 1.8 °F /  -16.8 °C 1036.8 in /  35106 hPa Calm   3.2 mph /  5.1 km/h 93 % 0.0 in /  0 mm
02:57 2.7 °F /  -16.3 °C 1.7 °F /  -16.8 °C 1037.1 in /  35116.2 hPa WNW 1.6 mph /  2.6 km/h 3.2 mph /  5.1 km/h 93 % 0.0 in /  0 mm
03:07 2.7 °F /  -16.3 °C 1.7 °F /  -16.8 °C 1036.8 in /  35106 hPa Calm   1.6 mph /  2.6 km/h 93 % 0.0 in /  0 mm
03:12 2.6 °F /  -16.3 °C 1.6 °F /  -16.9 °C 1036.8 in /  35106 hPa Calm   1.6 mph /  2.6 km/h 93 % 0.0 in /  0 mm
03:22 2.6 °F /  -16.3 °C 1.7 °F /  -16.8 °C 1036.8 in /  35106 hPa Calm   1.6 mph /  2.6 km/h 94 % 0.0 in /  0 mm
03:32 2.5 °F /  -16.4 °C 1.6 °F /  -16.9 °C 1036.8 in /  35106 hPa Calm   1.6 mph /  2.6 km/h 94 % 0.0 in /  0 mm
03:42 2.5 °F /  -16.4 °C 1.6 °F /  -16.9 °C 1036.8 in /  35106 hPa Calm     94 % 0.0 in /  0 mm
03:47 2.3 °F /  -16.5 °C 1.3 °F /  -17.1 °C 1036.8 in /  35106 hPa Calm     93 % 0.0 in /  0 mm
03:52 2.2 °F /  -16.6 °C 1.3 °F /  -17.1 °C 1036.5 in /  35095.9 hPa Calm     94 % 0.0 in /  0 mm
04:02 2.1 °F /  -16.6 °C 1.2 °F /  -17.1 °C 1036.5 in /  35095.9 hPa Calm     94 % 0.0 in /  0 mm
04:22 2.5 °F /  -16.4 °C 1.8 °F /  -16.8 °C 1036.5 in /  35095.9 hPa Calm   1.6 mph /  2.6 km/h 95 % 0.0 in /  0 mm
04:32 2.5 °F /  -16.4 °C 1.6 °F /  -16.9 °C 1036.5 in /  35095.9 hPa Calm   1.6 mph /  2.6 km/h 94 % 0.0 in /  0 mm
04:37 2.5 °F /  -16.4 °C 1.6 °F /  -16.9 °C 1036.5 in /  35095.9 hPa Calm   1.6 mph /  2.6 km/h 94 % 0.0 in /  0 mm
04:42 2.5 °F /  -16.4 °C 1.6 °F /  -16.9 °C 1036.5 in /  35095.9 hPa Calm   1.6 mph /  2.6 km/h 94 % 0.0 in /  0 mm
04:47 2.6 °F /  -16.3 °C 1.9 °F /  -16.7 °C 1036.1 in /  35082.3 hPa Calm   1.6 mph /  2.6 km/h 95 % 0.0 in /  0 mm
04:57 2.7 °F /  -16.3 °C 2.0 °F /  -16.7 °C 1036.1 in /  35082.3 hPa Calm   3.2 mph /  5.1 km/h 95 % 0.0 in /  0 mm
05:02 2.7 °F /  -16.3 °C 2.0 °F /  -16.7 °C 1036.5 in /  35095.9 hPa Calm   3.2 mph /  5.1 km/h 95 % 0.0 in /  0 mm
05:07 2.7 °F /  -16.3 °C 2.0 °F /  -16.7 °C 1036.5 in /  35095.9 hPa Calm   3.2 mph /  5.1 km/h 95 % 0.0 in /  0 mm
05:12 2.7 °F /  -16.3 °C 2.0 °F /  -16.7 °C 1036.1 in /  35082.3 hPa Calm   3.2 mph /  5.1 km/h 95 % 0.0 in /  0 mm
05:17 2.8 °F /  -16.2 °C 2.1 °F /  -16.6 °C 1036.1 in /  35082.3 hPa WNW 1.6 mph /  2.6 km/h 1.6 mph /  2.6 km/h 95 % 0.0 in /  0 mm
05:22 2.8 °F /  -16.2 °C 2.1 °F /  -16.6 °C 1036.5 in /  35095.9 hPa Calm   1.6 mph /  2.6 km/h 95 % 0.0 in /  0 mm
05:32 2.9 °F /  -16.2 °C 2.2 °F /  -16.6 °C 1036.5 in /  35095.9 hPa Calm   1.6 mph /  2.6 km/h 95 % 0.0 in /  0 mm
05:52 2.9 °F /  -16.2 °C 2.0 °F /  -16.7 °C 1036.1 in /  35082.3 hPa Calm     94 % 0.0 in /  0 mm
06:02 2.9 °F /  -16.2 °C 2.0 °F /  -16.7 °C 1036.1 in /  35082.3 hPa Calm     94 % 0.0 in /  0 mm
06:07 3.1 °F /  -16.1 °C 2.2 °F /  -16.6 °C 1036.5 in /  35095.9 hPa Calm     94 % 0.0 in /  0 mm
06:12 3.1 °F /  -16.1 °C 2.2 °F /  -16.6 °C 1036.5 in /  35095.9 hPa Calm     94 % 0.0 in /  0 mm
06:17 3.2 °F /  -16 °C 2.3 °F /  -16.5 °C 1036.5 in /  35095.9 hPa Calm     94 % 0.0 in /  0 mm
06:22 3.2 °F /  -16 °C 2.3 °F /  -16.5 °C 1036.5 in /  35095.9 hPa Calm     94 % 0.0 in /  0 mm
06:32 3.2 °F /  -16 °C 2.3 °F /  -16.5 °C 1036.5 in /  35095.9 hPa Calm     94 % 0.0 in /  0 mm
06:42 3.2 °F /  -16 °C 2.3 °F /  -16.5 °C 1036.5 in /  35095.9 hPa Calm     94 % 0.0 in /  0 mm
06:47 3.2 °F /  -16 °C 2.3 °F /  -16.5 °C 1036.5 in /  35095.9 hPa Calm     94 % 0.0 in /  0 mm
06:52 3.3 °F /  -15.9 °C 2.4 °F /  -16.4 °C 1036.5 in /  35095.9 hPa Calm     94 % 0.0 in /  0 mm
07:02 3.5 °F /  -15.8 °C 2.6 °F /  -16.3 °C 1036.5 in /  35095.9 hPa Calm   1.6 mph /  2.6 km/h 94 % 0.0 in /  0 mm
07:07 3.6 °F /  -15.8 °C 2.6 °F /  -16.3 °C 1036.5 in /  35095.9 hPa Calm   3.2 mph /  5.1 km/h 93 % 0.0 in /  0 mm
07:12 3.6 °F /  -15.8 °C 2.6 °F /  -16.3 °C 1036.5 in /  35095.9 hPa Calm   3.2 mph /  5.1 km/h 93 % 0.0 in /  0 mm
07:17 3.7 °F /  -15.7 °C 2.7 °F /  -16.3 °C 1036.5 in /  35095.9 hPa Calm   3.2 mph /  5.1 km/h 93 % 0.0 in /  0 mm
07:22 3.7 °F /  -15.7 °C 2.7 °F /  -16.3 °C 1036.5 in /  35095.9 hPa Calm   3.2 mph /  5.1 km/h 93 % 0.0 in /  0 mm
07:32 3.6 °F /  -15.8 °C 2.6 °F /  -16.3 °C 1036.5 in /  35095.9 hPa NW 1.6 mph /  2.6 km/h 4.8 mph /  7.7 km/h 93 % 0.0 in /  0 mm
07:37 3.7 °F /  -15.7 °C 2.7 °F /  -16.3 °C 1036.5 in /  35095.9 hPa Calm   4.8 mph /  7.7 km/h 93 % 0.0 in /  0 mm
07:47 3.7 °F /  -15.7 °C 2.5 °F /  -16.4 °C 1036.5 in /  35095.9 hPa Calm   4.8 mph /  7.7 km/h 92 % 0.0 in /  0 mm
07:52 3.7 °F /  -15.7 °C 2.5 °F /  -16.4 °C 1036.5 in /  35095.9 hPa Calm   4.8 mph /  7.7 km/h 92 % 0.0 in /  0 mm
07:57 3.7 °F /  -15.7 °C 2.5 °F /  -16.4 °C 1036.5 in /  35095.9 hPa Calm   4.8 mph /  7.7 km/h 92 % 0.0 in /  0 mm
08:02 3.7 °F /  -15.7 °C 2.5 °F /  -16.4 °C 1036.5 in /  35095.9 hPa Calm   4.8 mph /  7.7 km/h 92 % 0.0 in /  0 mm
08:07 3.7 °F /  -15.7 °C 2.5 °F /  -16.4 °C 1036.5 in /  35095.9 hPa Calm   1.6 mph /  2.6 km/h 92 % 0.0 in /  0 mm
08:22 3.7 °F /  -15.7 °C 2.7 °F /  -16.3 °C 1036.5 in /  35095.9 hPa Calm     93 % 0.0 in /  0 mm
08:27 3.8 °F /  -15.7 °C 2.8 °F /  -16.2 °C 1036.5 in /  35095.9 hPa Calm   1.6 mph /  2.6 km/h 93 % 0.0 in /  0 mm
08:32 3.8 °F /  -15.7 °C 2.8 °F /  -16.2 °C 1036.5 in /  35095.9 hPa Calm   1.6 mph /  2.6 km/h 93 % 0.0 in /  0 mm
08:42 3.8 °F /  -15.7 °C 2.8 °F /  -16.2 °C 1036.5 in /  35095.9 hPa Calm   1.6 mph /  2.6 km/h 93 % 0.0 in /  0 mm
08:47 3.8 °F /  -15.7 °C 2.8 °F /  -16.2 °C 1036.5 in /  35095.9 hPa Calm   1.6 mph /  2.6 km/h 93 % 0.0 in /  0 mm
08:52 3.8 °F /  -15.7 °C 2.8 °F /  -16.2 °C 1036.5 in /  35095.9 hPa Calm   1.6 mph /  2.6 km/h 93 % 0.0 in /  0 mm
09:02 3.7 °F /  -15.7 °C 2.7 °F /  -16.3 °C 1036.8 in /  35106 hPa Calm     93 % 0.0 in /  0 mm
09:07 3.6 °F /  -15.8 °C 2.6 °F /  -16.3 °C 1036.8 in /  35106 hPa Calm   1.6 mph /  2.6 km/h 93 % 0.0 in /  0 mm
09:12 3.6 °F /  -15.8 °C 2.6 °F /  -16.3 °C 1036.8 in /  35106 hPa Calm   1.6 mph /  2.6 km/h 93 % 0.0 in /  0 mm
09:22 3.6 °F /  -15.8 °C 2.7 °F /  -16.3 °C 1036.8 in /  35106 hPa Calm   1.6 mph /  2.6 km/h 94 % 0.0 in /  0 mm
09:27 3.6 °F /  -15.8 °C 2.7 °F /  -16.3 °C 1036.8 in /  35106 hPa Calm   1.6 mph /  2.6 km/h 94 % 0.0 in /  0 mm
09:32 3.6 °F /  -15.8 °C 2.7 °F /  -16.3 °C 1036.8 in /  35106 hPa West 1.6 mph /  2.6 km/h 1.6 mph /  2.6 km/h 94 % 0.0 in /  0 mm
09:37 3.7 °F /  -15.7 °C 2.8 °F /  -16.2 °C 1036.8 in /  35106 hPa Calm   1.6 mph /  2.6 km/h 94 % 0.0 in /  0 mm
09:42 3.7 °F /  -15.7 °C 2.7 °F /  -16.3 °C 1036.8 in /  35106 hPa West 1.6 mph /  2.6 km/h 1.6 mph /  2.6 km/h 93 % 0.0 in /  0 mm
09:47 3.7 °F /  -15.7 °C 2.8 °F /  -16.2 °C 1036.8 in /  35106 hPa Calm   4.8 mph /  7.7 km/h 94 % 0.0 in /  0 mm
09:52 3.7 °F /  -15.7 °C 2.7 °F /  -16.3 °C 1036.8 in /  35106 hPa Calm   4.8 mph /  7.7 km/h 93 % 0.0 in /  0 mm
09:57 3.7 °F /  -15.7 °C 2.7 °F /  -16.3 °C 1036.8 in /  35106 hPa WNW 1.6 mph /  2.6 km/h 4.8 mph /  7.7 km/h 93 % 0.0 in /  0 mm
10:07 3.8 °F /  -15.7 °C 2.8 °F /  -16.2 °C 1037.1 in /  35116.2 hPa West 3.2 mph /  5.1 km/h 3.2 mph /  5.1 km/h 93 % 0.0 in /  0 mm
10:12 3.8 °F /  -15.7 °C 2.8 °F /  -16.2 °C 1037.1 in /  35116.2 hPa SW 1.6 mph /  2.6 km/h 3.2 mph /  5.1 km/h 93 % 0.0 in /  0 mm
10:17 3.8 °F /  -15.7 °C 2.8 °F /  -16.2 °C 1037.1 in /  35116.2 hPa WSW 6.4 mph /  10.3 km/h 6.4 mph /  10.3 km/h 93 % 0.0 in /  0 mm
10:22 3.9 °F /  -15.6 °C 2.9 °F /  -16.2 °C 1037.1 in /  35116.2 hPa West 3.2 mph /  5.1 km/h 4.8 mph /  7.7 km/h 93 % 0.0 in /  0 mm
10:27 3.9 °F /  -15.6 °C 2.9 °F /  -16.2 °C 1037.1 in /  35116.2 hPa West 3.2 mph /  5.1 km/h 6.4 mph /  10.3 km/h 93 % 0.0 in /  0 mm
10:37 4.1 °F /  -15.5 °C 3.1 °F /  -16.1 °C 1037.1 in /  35116.2 hPa WSW 1.6 mph /  2.6 km/h 6.4 mph /  10.3 km/h 93 % 0.0 in /  0 mm
10:42 4.1 °F /  -15.5 °C 3.1 °F /  -16.1 °C 1037.1 in /  35116.2 hPa Calm   6.4 mph /  10.3 km/h 93 % 0.0 in /  0 mm
10:47 4.2 °F /  -15.4 °C 3.2 °F /  -16 °C 1037.1 in /  35116.2 hPa West 1.6 mph /  2.6 km/h 6.4 mph /  10.3 km/h 93 % 0.0 in /  0 mm
10:57 4.3 °F /  -15.4 °C 3.3 °F /  -15.9 °C 1037.1 in /  35116.2 hPa WSW 1.6 mph /  2.6 km/h 6.4 mph /  10.3 km/h 93 % 0.0 in /  0 mm
11:02 4.4 °F /  -15.3 °C 3.4 °F /  -15.9 °C 1037.1 in /  35116.2 hPa Calm   6.4 mph /  10.3 km/h 93 % 0.0 in /  0 mm
11:12 4.7 °F /  -15.2 °C 3.7 °F /  -15.7 °C 1037.1 in /  35116.2 hPa Calm   3.2 mph /  5.1 km/h 93 % 0.0 in /  0 mm
11:17 4.8 °F /  -15.1 °C 3.8 °F /  -15.7 °C 1037.1 in /  35116.2 hPa WNW 6.4 mph /  10.3 km/h 8.0 mph /  12.9 km/h 93 % 0.0 in /  0 mm
11:22 4.9 °F /  -15.1 °C 3.9 °F /  -15.6 °C 1037.1 in /  35116.2 hPa NW 1.6 mph /  2.6 km/h 8.0 mph /  12.9 km/h 93 % 0.0 in /  0 mm
11:27 4.9 °F /  -15.1 °C 3.9 °F /  -15.6 °C 1037.1 in /  35116.2 hPa WNW 4.8 mph /  7.7 km/h 9.7 mph /  15.6 km/h 93 % 0.0 in /  0 mm
11:32 4.9 °F /  -15.1 °C 3.9 °F /  -15.6 °C 1037.1 in /  35116.2 hPa WNW 12.9 mph /  20.8 km/h 12.9 mph /  20.8 km/h 93 % 0.0 in /  0 mm
11:37 4.9 °F /  -15.1 °C 3.9 °F /  -15.6 °C 1037.1 in /  35116.2 hPa NNW 3.2 mph /  5.1 km/h 14.5 mph /  23.3 km/h 93 % 0.0 in /  0 mm
11:42 4.9 °F /  -15.1 °C 4.0 °F /  -15.6 °C 1037.1 in /  35116.2 hPa West 8.0 mph /  12.9 km/h 14.5 mph /  23.3 km/h 94 % 0.0 in /  0 mm
11:47 5.0 °F /  -15 °C 4.1 °F /  -15.5 °C 1037.1 in /  35116.2 hPa West 6.4 mph /  10.3 km/h 14.5 mph /  23.3 km/h 94 % 0.0 in /  0 mm
11:52 5.0 °F /  -15 °C 4.1 °F /  -15.5 °C 1037.1 in /  35116.2 hPa NW 1.6 mph /  2.6 km/h 14.5 mph /  23.3 km/h 94 % 0.0 in /  0 mm
11:57 5.1 °F /  -14.9 °C 4.2 °F /  -15.4 °C 1036.8 in /  35106 hPa WNW 1.6 mph /  2.6 km/h 11.3 mph /  18.2 km/h 94 % 0.0 in /  0 mm
12:02 5.1 °F /  -14.9 °C 4.2 °F /  -15.4 °C 1036.8 in /  35106 hPa NNW 1.6 mph /  2.6 km/h 11.3 mph /  18.2 km/h 94 % 0.0 in /  0 mm
12:12 5.2 °F /  -14.9 °C 4.5 °F /  -15.3 °C 1036.8 in /  35106 hPa Calm   8.0 mph /  12.9 km/h 95 % 0.0 in /  0 mm
12:17 5.2 °F /  -14.9 °C 4.5 °F /  -15.3 °C 1036.8 in /  35106 hPa Calm   8.0 mph /  12.9 km/h 95 % 0.0 in /  0 mm
12:22 5.3 °F /  -14.8 °C 4.6 °F /  -15.2 °C 1036.8 in /  35106 hPa Calm   8.0 mph /  12.9 km/h 95 % 0.0 in /  0 mm
12:32 5.3 °F /  -14.8 °C 4.6 °F /  -15.2 °C 1036.8 in /  35106 hPa Calm   8.0 mph /  12.9 km/h 95 % 0.0 in /  0 mm
12:42 5.4 °F /  -14.8 °C 4.5 °F /  -15.3 °C 1036.8 in /  35106 hPa WNW 4.8 mph /  7.7 km/h 6.4 mph /  10.3 km/h 94 % 0.0 in /  0 mm
12:52 5.4 °F /  -14.8 °C 4.5 °F /  -15.3 °C 1036.8 in /  35106 hPa Calm   8.0 mph /  12.9 km/h 94 % 0.0 in /  0 mm
13:02 5.5 °F /  -14.7 °C 4.6 °F /  -15.2 °C 1036.8 in /  35106 hPa WNW 1.6 mph /  2.6 km/h 9.7 mph /  15.6 km/h 94 % 0.0 in /  0 mm
13:07 5.5 °F /  -14.7 °C 4.6 °F /  -15.2 °C 1036.5 in /  35095.9 hPa WNW 1.6 mph /  2.6 km/h 9.7 mph /  15.6 km/h 94 % 0.0 in /  0 mm
13:12 5.5 °F /  -14.7 °C 4.6 °F /  -15.2 °C 1036.5 in /  35095.9 hPa WNW 4.8 mph /  7.7 km/h 9.7 mph /  15.6 km/h 94 % 0.0 in /  0 mm
13:17 5.5 °F /  -14.7 °C 4.6 °F /  -15.2 °C 1036.5 in /  35095.9 hPa NNW 4.8 mph /  7.7 km/h 8.0 mph /  12.9 km/h 94 % 0.0 in /  0 mm
13:22 5.5 °F /  -14.7 °C 4.6 °F /  -15.2 °C 1036.5 in /  35095.9 hPa North 1.6 mph /  2.6 km/h 8.0 mph /  12.9 km/h 94 % 0.0 in /  0 mm
13:42 5.7 °F /  -14.6 °C 5.0 °F /  -15 °C 1036.5 in /  35095.9 hPa NNW 1.6 mph /  2.6 km/h 6.4 mph /  10.3 km/h 95 % 0.0 in /  0 mm
13:52 5.8 °F /  -14.6 °C 5.1 °F /  -14.9 °C 1036.1 in /  35082.3 hPa NNW 1.6 mph /  2.6 km/h 6.4 mph /  10.3 km/h 95 % 0.0 in /  0 mm
14:02 5.9 °F /  -14.5 °C 5.2 °F /  -14.9 °C 1036.5 in /  35095.9 hPa NNW 3.2 mph /  5.1 km/h 4.8 mph /  7.7 km/h 95 % 0.0 in /  0 mm
14:12 5.9 °F /  -14.5 °C 5.2 °F /  -14.9 °C 1036.1 in /  35082.3 hPa NW 1.6 mph /  2.6 km/h 4.8 mph /  7.7 km/h 95 % 0.0 in /  0 mm
14:22 6.1 °F /  -14.4 °C 5.4 °F /  -14.8 °C 1036.1 in /  35082.3 hPa Calm   8.0 mph /  12.9 km/h 95 % 0.0 in /  0 mm
14:32 6.2 °F /  -14.3 °C 5.5 °F /  -14.7 °C 1036.1 in /  35082.3 hPa Calm   4.8 mph /  7.7 km/h 95 % 0.0 in /  0 mm
14:42 6.3 °F /  -14.3 °C 5.6 °F /  -14.7 °C 1035.8 in /  35072.2 hPa NNW 1.6 mph /  2.6 km/h 6.4 mph /  10.3 km/h 95 % 0.0 in /  0 mm
14:52 6.3 °F /  -14.3 °C 5.6 °F /  -14.7 °C 1035.8 in /  35072.2 hPa NNW 1.6 mph /  2.6 km/h 6.4 mph /  10.3 km/h 95 % 0.0 in /  0 mm
14:57 6.3 °F /  -14.3 °C 5.6 °F /  -14.7 °C 1036.1 in /  35082.3 hPa West 3.2 mph /  5.1 km/h 11.3 mph /  18.2 km/h 95 % 0.0 in /  0 mm
15:02 6.4 °F /  -14.2 °C 5.7 °F /  -14.6 °C 1035.8 in /  35072.2 hPa NW 6.4 mph /  10.3 km/h 11.3 mph /  18.2 km/h 95 % 0.0 in /  0 mm
15:12 6.4 °F /  -14.2 °C 5.7 °F /  -14.6 °C 1036.1 in /  35082.3 hPa WNW 4.8 mph /  7.7 km/h 9.7 mph /  15.6 km/h 95 % 0.0 in /  0 mm
15:17 6.4 °F /  -14.2 °C 5.7 °F /  -14.6 °C 1036.1 in /  35082.3 hPa WNW 4.8 mph /  7.7 km/h 9.7 mph /  15.6 km/h 95 % 0.0 in /  0 mm
15:22 6.5 °F /  -14.2 °C 5.8 °F /  -14.6 °C 1036.1 in /  35082.3 hPa NW 1.6 mph /  2.6 km/h 9.7 mph /  15.6 km/h 95 % 0.0 in /  0 mm
15:27 6.5 °F /  -14.2 °C 5.8 °F /  -14.6 °C 1036.1 in /  35082.3 hPa North 1.6 mph /  2.6 km/h 8.0 mph /  12.9 km/h 95 % 0.0 in /  0 mm
15:37 6.6 °F /  -14.1 °C 5.9 °F /  -14.5 °C 1036.1 in /  35082.3 hPa Calm   4.8 mph /  7.7 km/h 95 % 0.0 in /  0 mm
15:42 6.6 °F /  -14.1 °C 5.9 °F /  -14.5 °C 1036.1 in /  35082.3 hPa Calm   4.8 mph /  7.7 km/h 95 % 0.0 in /  0 mm
15:52 6.6 °F /  -14.1 °C 5.9 °F /  -14.5 °C 1036.1 in /  35082.3 hPa Calm   1.6 mph /  2.6 km/h 95 % 0.0 in /  0 mm
16:02 6.7 °F /  -14.1 °C 6.0 °F /  -14.4 °C 1036.1 in /  35082.3 hPa Calm   4.8 mph /  7.7 km/h 95 % 0.0 in /  0 mm
16:07 6.6 °F /  -14.1 °C 5.9 °F /  -14.5 °C 1036.1 in /  35082.3 hPa Calm   1.6 mph /  2.6 km/h 95 % 0.0 in /  0 mm
16:12 6.6 °F /  -14.1 °C 5.9 °F /  -14.5 °C 1036.5 in /  35095.9 hPa Calm   1.6 mph /  2.6 km/h 95 % 0.0 in /  0 mm
16:17 6.5 °F /  -14.2 °C 5.8 °F /  -14.6 °C 1036.1 in /  35082.3 hPa Calm   1.6 mph /  2.6 km/h 95 % 0.0 in /  0 mm
16:22 6.4 °F /  -14.2 °C 5.7 °F /  -14.6 °C 1036.1 in /  35082.3 hPa Calm   1.6 mph /  2.6 km/h 95 % 0.0 in /  0 mm
16:32 6.4 °F /  -14.2 °C 5.7 °F /  -14.6 °C 1036.5 in /  35095.9 hPa Calm   1.6 mph /  2.6 km/h 95 % 0.0 in /  0 mm
16:37 6.4 °F /  -14.2 °C 5.7 °F /  -14.6 °C 1036.5 in /  35095.9 hPa Calm   1.6 mph /  2.6 km/h 95 % 0.0 in /  0 mm
16:42 6.4 °F /  -14.2 °C 5.7 °F /  -14.6 °C 1036.5 in /  35095.9 hPa Calm   1.6 mph /  2.6 km/h 95 % 0.0 in /  0 mm
16:47 6.4 °F /  -14.2 °C 5.7 °F /  -14.6 °C 1036.5 in /  35095.9 hPa Calm     95 % 0.0 in /  0 mm
16:52 6.4 °F /  -14.2 °C 5.7 °F /  -14.6 °C 1036.5 in /  35095.9 hPa North 1.6 mph /  2.6 km/h   95 % 0.0 in /  0 mm
17:02 6.4 °F /  -14.2 °C 5.7 °F /  -14.6 °C 1036.5 in /  35095.9 hPa Calm   1.6 mph /  2.6 km/h 95 % 0.0 in /  0 mm
17:12 6.3 °F /  -14.3 °C 5.6 °F /  -14.7 °C 1036.5 in /  35095.9 hPa Calm   1.6 mph /  2.6 km/h 95 % 0.0 in /  0 mm
17:17 6.3 °F /  -14.3 °C 5.7 °F /  -14.6 °C 1036.5 in /  35095.9 hPa Calm   1.6 mph /  2.6 km/h 96 % 0.0 in /  0 mm
17:22 6.3 °F /  -14.3 °C 5.7 °F /  -14.6 °C 1036.5 in /  35095.9 hPa Calm   1.6 mph /  2.6 km/h 96 % 0.0 in /  0 mm
17:32 6.2 °F /  -14.3 °C 5.6 °F /  -14.7 °C 1036.5 in /  35095.9 hPa Calm     96 % 0.0 in /  0 mm
17:42 6.2 °F /  -14.3 °C 5.6 °F /  -14.7 °C 1036.5 in /  35095.9 hPa Calm     96 % 0.0 in /  0 mm
17:47 6.3 °F /  -14.3 °C 5.7 °F /  -14.6 °C 1036.8 in /  35106 hPa WNW 3.2 mph /  5.1 km/h   96 % 0.0 in /  0 mm
17:52 6.3 °F /  -14.3 °C 5.7 °F /  -14.6 °C 1036.8 in /  35106 hPa NW 1.6 mph /  2.6 km/h   96 % 0.0 in /  0 mm
18:02 6.4 °F /  -14.2 °C 5.8 °F /  -14.6 °C 1036.5 in /  35095.9 hPa WNW 1.6 mph /  2.6 km/h 4.8 mph /  7.7 km/h 96 % 0.0 in /  0 mm
18:07 6.4 °F /  -14.2 °C 5.8 °F /  -14.6 °C 1036.8 in /  35106 hPa NW 1.6 mph /  2.6 km/h 6.4 mph /  10.3 km/h 96 % 0.0 in /  0 mm
18:12 6.3 °F /  -14.3 °C 5.7 °F /  -14.6 °C 1036.8 in /  35106 hPa Calm   6.4 mph /  10.3 km/h 96 % 0.0 in /  0 mm
18:17 6.3 °F /  -14.3 °C 5.7 °F /  -14.6 °C 1036.8 in /  35106 hPa WNW 1.6 mph /  2.6 km/h 8.0 mph /  12.9 km/h 96 % 0.0 in /  0 mm
18:22 6.3 °F /  -14.3 °C 5.7 °F /  -14.6 °C 1036.8 in /  35106 hPa Calm   8.0 mph /  12.9 km/h 96 % 0.0 in /  0 mm
18:32 6.2 °F /  -14.3 °C 5.6 °F /  -14.7 °C 1037.1 in /  35116.2 hPa Calm   6.4 mph /  10.3 km/h 96 % 0.0 in /  0 mm
18:37 6.2 °F /  -14.3 °C 5.6 °F /  -14.7 °C 1037.1 in /  35116.2 hPa NW 3.2 mph /  5.1 km/h 6.4 mph /  10.3 km/h 96 % 0.0 in /  0 mm
18:42 6.2 °F /  -14.3 °C 5.6 °F /  -14.7 °C 1037.1 in /  35116.2 hPa NW 1.6 mph /  2.6 km/h 8.0 mph /  12.9 km/h 96 % 0.0 in /  0 mm
18:52 6.2 °F /  -14.3 °C 5.6 °F /  -14.7 °C 1037.1 in /  35116.2 hPa North 1.6 mph /  2.6 km/h 11.3 mph /  18.2 km/h 96 % 0.0 in /  0 mm
19:02 6.2 °F /  -14.3 °C 5.8 °F /  -14.6 °C 1037.1 in /  35116.2 hPa NW 6.4 mph /  10.3 km/h 11.3 mph /  18.2 km/h 97 % 0.0 in /  0 mm
19:12 6.3 °F /  -14.3 °C 5.9 °F /  -14.5 °C 1037.5 in /  35129.8 hPa NNW 6.4 mph /  10.3 km/h 14.5 mph /  23.3 km/h 97 % 0.0 in /  0 mm
19:17 6.3 °F /  -14.3 °C 5.9 °F /  -14.5 °C 1037.5 in /  35129.8 hPa WNW 1.6 mph /  2.6 km/h 14.5 mph /  23.3 km/h 97 % 0.0 in /  0 mm
19:22 6.3 °F /  -14.3 °C 5.9 °F /  -14.5 °C 1037.1 in /  35116.2 hPa WNW 1.6 mph /  2.6 km/h 14.5 mph /  23.3 km/h 97 % 0.0 in /  0 mm
19:32 6.2 °F /  -14.3 °C 5.8 °F /  -14.6 °C 1037.5 in /  35129.8 hPa WNW 1.6 mph /  2.6 km/h 14.5 mph /  23.3 km/h 97 % 0.0 in /  0 mm
19:37 6.2 °F /  -14.3 °C 5.8 °F /  -14.6 °C 1037.5 in /  35129.8 hPa WNW 6.4 mph /  10.3 km/h 11.3 mph /  18.2 km/h 97 % 0.0 in /  0 mm
19:42 6.2 °F /  -14.3 °C 5.8 °F /  -14.6 °C 1037.1 in /  35116.2 hPa NNW 3.2 mph /  5.1 km/h 11.3 mph /  18.2 km/h 97 % 0.0 in /  0 mm
19:47 6.2 °F /  -14.3 °C 5.8 °F /  -14.6 °C 1037.1 in /  35116.2 hPa NNW 3.2 mph /  5.1 km/h 9.7 mph /  15.6 km/h 97 % 0.0 in /  0 mm
19:52 6.2 °F /  -14.3 °C 5.8 °F /  -14.6 °C 1037.5 in /  35129.8 hPa WNW 3.2 mph /  5.1 km/h 9.7 mph /  15.6 km/h 97 % 0.0 in /  0 mm
19:57 6.2 °F /  -14.3 °C 5.8 °F /  -14.6 °C 1037.5 in /  35129.8 hPa WNW 6.4 mph /  10.3 km/h 8.0 mph /  12.9 km/h 97 % 0.0 in /  0 mm
20:02 6.2 °F /  -14.3 °C 5.8 °F /  -14.6 °C 1037.5 in /  35129.8 hPa NW 1.6 mph /  2.6 km/h 8.0 mph /  12.9 km/h 97 % 0.0 in /  0 mm
20:12 6.2 °F /  -14.3 °C 5.8 °F /  -14.6 °C 1037.5 in /  35129.8 hPa NW 1.6 mph /  2.6 km/h 8.0 mph /  12.9 km/h 97 % 0.0 in /  0 mm
20:17 6.2 °F /  -14.3 °C 5.8 °F /  -14.6 °C 1037.5 in /  35129.8 hPa NW 1.6 mph /  2.6 km/h 6.4 mph /  10.3 km/h 97 % 0.0 in /  0 mm
20:22 6.1 °F /  -14.4 °C 5.7 °F /  -14.6 °C 1037.5 in /  35129.8 hPa Calm   6.4 mph /  10.3 km/h 97 % 0.0 in /  0 mm
20:32 6.2 °F /  -14.3 °C 5.8 °F /  -14.6 °C 1037.5 in /  35129.8 hPa WNW 1.6 mph /  2.6 km/h 3.2 mph /  5.1 km/h 97 % 0.0 in /  0 mm
20:37 6.2 °F /  -14.3 °C 5.8 °F /  -14.6 °C 1037.5 in /  35129.8 hPa WNW 3.2 mph /  5.1 km/h 4.8 mph /  7.7 km/h 97 % 0.0 in /  0 mm
20:42 6.2 °F /  -14.3 °C 5.8 °F /  -14.6 °C 1037.5 in /  35129.8 hPa West 1.6 mph /  2.6 km/h 4.8 mph /  7.7 km/h 97 % 0.0 in /  0 mm
20:52 6.2 °F /  -14.3 °C 5.8 °F /  -14.6 °C 1037.5 in /  35129.8 hPa NW 3.2 mph /  5.1 km/h 4.8 mph /  7.7 km/h 97 % 0.0 in /  0 mm
20:57 6.2 °F /  -14.3 °C 5.8 °F /  -14.6 °C 1037.5 in /  35129.8 hPa NW 1.6 mph /  2.6 km/h 6.4 mph /  10.3 km/h 97 % 0.0 in /  0 mm
21:02 6.2 °F /  -14.3 °C 5.8 °F /  -14.6 °C 1037.5 in /  35129.8 hPa Calm   6.4 mph /  10.3 km/h 97 % 0.0 in /  0 mm
21:12 6.2 °F /  -14.3 °C 5.8 °F /  -14.6 °C 1037.5 in /  35129.8 hPa Calm   6.4 mph /  10.3 km/h 97 % 0.0 in /  0 mm
21:17 6.2 °F /  -14.3 °C 5.8 °F /  -14.6 °C 1037.1 in /  35116.2 hPa Calm   3.2 mph /  5.1 km/h 97 % 0.0 in /  0 mm
21:22 6.2 °F /  -14.3 °C 5.8 °F /  -14.6 °C 1037.1 in /  35116.2 hPa WNW 1.6 mph /  2.6 km/h 3.2 mph /  5.1 km/h 97 % 0.0 in /  0 mm
21:27 6.2 °F /  -14.3 °C 5.8 °F /  -14.6 °C 1037.1 in /  35116.2 hPa Calm   6.4 mph /  10.3 km/h 97 % 0.0 in /  0 mm
21:37 6.2 °F /  -14.3 °C 5.8 °F /  -14.6 °C 1037.1 in /  35116.2 hPa NW 3.2 mph /  5.1 km/h 6.4 mph /  10.3 km/h 97 % 0.0 in /  0 mm
21:42 6.3 °F /  -14.3 °C 5.9 °F /  -14.5 °C 1037.1 in /  35116.2 hPa WNW 4.8 mph /  7.7 km/h 6.4 mph /  10.3 km/h 97 % 0.0 in /  0 mm
21:52 6.2 °F /  -14.3 °C 5.8 °F /  -14.6 °C 1037.1 in /  35116.2 hPa WNW 6.4 mph /  10.3 km/h 9.7 mph /  15.6 km/h 97 % 0.0 in /  0 mm
22:02 6.2 °F /  -14.3 °C 5.8 °F /  -14.6 °C 1037.1 in /  35116.2 hPa NW 1.6 mph /  2.6 km/h 8.0 mph /  12.9 km/h 97 % 0.0 in /  0 mm
22:12 6.2 °F /  -14.3 °C 5.8 °F /  -14.6 °C 1037.5 in /  35129.8 hPa Calm   8.0 mph /  12.9 km/h 97 % 0.0 in /  0 mm
22:22 6.2 °F /  -14.3 °C 5.8 °F /  -14.6 °C 1037.5 in /  35129.8 hPa Calm   6.4 mph /  10.3 km/h 97 % 0.0 in /  0 mm
22:32 6.2 °F /  -14.3 °C 5.8 °F /  -14.6 °C 1037.5 in /  35129.8 hPa WNW 1.6 mph /  2.6 km/h 3.2 mph /  5.1 km/h 97 % 0.0 in /  0 mm
22:37 6.2 °F /  -14.3 °C 5.8 °F /  -14.6 °C 1037.5 in /  35129.8 hPa WNW 1.6 mph /  2.6 km/h 3.2 mph /  5.1 km/h 97 % 0.0 in /  0 mm
22:47 6.2 °F /  -14.3 °C 5.8 °F /  -14.6 °C 1037.5 in /  35129.8 hPa WNW 1.6 mph /  2.6 km/h 3.2 mph /  5.1 km/h 97 % 0.0 in /  0 mm
22:57 6.2 °F /  -14.3 °C 5.8 °F /  -14.6 °C 1037.8 in /  35139.9 hPa Calm   6.4 mph /  10.3 km/h 97 % 0.0 in /  0 mm
23:07 6.2 °F /  -14.3 °C 5.8 °F /  -14.6 °C 1037.5 in /  35129.8 hPa WNW 1.6 mph /  2.6 km/h 8.0 mph /  12.9 km/h 97 % 0.0 in /  0 mm
23:12 6.2 °F /  -14.3 °C 5.8 °F /  -14.6 °C 1037.8 in /  35139.9 hPa WNW 1.6 mph /  2.6 km/h 8.0 mph /  12.9 km/h 97 % 0.0 in /  0 mm
23:17 6.2 °F /  -14.3 °C 5.8 °F /  -14.6 °C 1037.8 in /  35139.9 hPa Calm   8.0 mph /  12.9 km/h 97 % 0.0 in /  0 mm
23:22 6.3 °F /  -14.3 °C 5.9 °F /  -14.5 °C 1037.8 in /  35139.9 hPa WNW 3.2 mph /  5.1 km/h 8.0 mph /  12.9 km/h 97 % 0.0 in /  0 mm
23:32 6.3 °F /  -14.3 °C 5.9 °F /  -14.5 °C 1037.8 in /  35139.9 hPa WNW 1.6 mph /  2.6 km/h 6.4 mph /  10.3 km/h 97 % 0.0 in /  0 mm
23:37 6.3 °F /  -14.3 °C 5.9 °F /  -14.5 °C 1037.8 in /  35139.9 hPa WNW 1.6 mph /  2.6 km/h 8.0 mph /  12.9 km/h 97 % 0.0 in /  0 mm
23:42 6.3 °F /  -14.3 °C 5.9 °F /  -14.5 °C 1037.8 in /  35139.9 hPa WNW 3.2 mph /  5.1 km/h 8.0 mph /  12.9 km/h 97 % 0.0 in /  0 mm
23:47 6.3 °F /  -14.3 °C 5.9 °F /  -14.5 °C 1038.1 in /  35150.1 hPa WNW 3.2 mph /  5.1 km/h 8.0 mph /  12.9 km/h 97 % 0.0 in /  0 mm
23:52 6.3 °F /  -14.3 °C 5.9 °F /  -14.5 °C 1038.1 in /  35150.1 hPa Calm   8.0 mph /  12.9 km/h 97 % 0.0 in /  0 mm
Meteo18
Compliments of Weather Underground - 4 mb

Script developed by  Jim McMurry - jmcmurry@mwt.net Adapted for the template by  Wim van der Kuil - Leuven-Template.eu

You find our weather info also at:

European Weather Network

Weather Underground

Equipment we use:

Weather-station
Davis Vue

Weather-program
Meteobridge

Weather-server
Raspberry PI 2 B+

Provider
1 and 1

Davis Vue

Meteobridge

Raspberry PI 2 B+

1 and 1